00:48
Airports
History
Links
Donate
Help keep this website running!
PayPal
Bitcoin
This page is community maintained. The information is intended for PC simulator navigation or reference.
Always use approved charts for navigation.
EDVC
Celle-Arloh
Celle-Arloh (EDVC)
Celle, Niedersachsen, Germany (29229)
(C)
Lat/Lng:52° 41' 21.6" N / 10° 6' 28.89" E
52.689334 / 10.108025
Elevation:207'ft / 63mMSL
ID / ICAO:EDVC
Runways:1
Longest:5-23
Grass 901m / 2,957ft
Controlled:Yes
Beacon:White-Green
Nearby Weather00:20 GMT 2017-09-25
Nearby weather at ETHC, CELLE located 7.7 nautical miles from EDVC
Altimeter: 30.21
Visibility: 1.7 statute miles
Wind: 3 knots (from 070°)
Temp: 12°c / 54°f
Humidity: 100.0%

METAR: ETHC 250020Z 07003KT 2800 MIFG BR BKN090 12/12 Q1023 YLO

(Powered by phpweather)
Airport Radio Frequencies
Tower: 123.65
Nearby VORs <50NM
Nearby NDBs
Runway 5 / 23
Dimensions:901.2 x 39.9m 2957' x 131'ft
Surface:Grass
Runway 5 [A]Runway 23 [B]
Heading:045°TH 225°TH
Lat:
Lng:
52° 41' 11.31"N
10° 6' 11.85"E
52° 41' 31.89"N
10° 6' 45.93"E
User Notes and Comments
52° 41' 21.6" N / 10° 6' 28.89" E
Distance To
Airport ID:
Nearby Airports
(C) CELLE 7.7 NM
ETHC ( WX ) SSW 207°
(C) FASSBERG 16.0 NM
ETHS ( WX ) N 11°
(C) Peine Eddesse 20.9 NM
EDVP SSE 163°
4 Hodenhagen 21.4 NM
EDVH WNW 284°
(C) Hannover 23.9 NM
EDDV ( WX ) SW 228°
(U) Uelzen 25.2 NM
EDVU NE 36°
(C) Braunschweig-Wolfsburg 31.8 NM
EDVE ( WX ) SE 143°
VFR Chart
Flight Planning at SkyVector.com